Terminal Aerodrome Forecast
Issued by NWS

Home | Current Version | Previous Version | Text Only | Print | Product List | Glossary On
Versions: 1 2 3 4 5 6 7 8 9 10 11 12 13 14 15 16 17 18
000
FTUS43 KGRB 172332
TAFATW
TAF
KATW 172332Z 1800/1824 34006KT 1SM BR OVC002
      TEMPO 1800/1801 1/4SM FG
     FM180100 32005KT 2SM BR OVC004
     FM180300 27004KT 5SM BR SCT007 BKN012
     FM180600 26005KT 3SM BR SCT015 OVC025
     FM181100 23008KT 2SM BR OVC003
     FM181800 22010KT P6SM SCT010=

USA.gov is the U.S. government's official web portal to all federal, state and local government web resources and services.